sensor_id;sensor_type;location;lat;lon;timestamp;P1;durP1;ratioP1;P2;durP2;ratioP2
65855;SDS011;52631;42.208;24.656;2023-05-16T00:00:29;47.13;;;25.35;;
65855;SDS011;52631;42.208;24.656;2023-05-16T00:02:59;42.55;;;24.02;;
65855;SDS011;52631;42.208;24.656;2023-05-16T00:05:25;47.28;;;25.63;;
65855;SDS011;52631;42.208;24.656;2023-05-16T00:07:50;49.08;;;26.00;;
65855;SDS011;52631;42.208;24.656;2023-05-16T00:10:16;50.15;;;26.70;;
65855;SDS011;52631;42.208;24.656;2023-05-16T00:12:42;54.10;;;28.05;;
65855;SDS011;52631;42.208;24.656;2023-05-16T00:15:09;52.92;;;26.00;;
65855;SDS011;52631;42.208;24.656;2023-05-16T00:17:37;53.20;;;28.13;;
65855;SDS011;52631;42.208;24.656;2023-05-16T00:20:02;52.45;;;26.60;;
65855;SDS011;52631;42.208;24.656;2023-05-16T00:22:39;59.67;;;29.73;;
65855;SDS011;52631;42.208;24.656;2023-05-16T00:25:05;61.28;;;30.73;;
65855;SDS011;52631;42.208;24.656;2023-05-16T00:27:32;60.97;;;30.60;;
65855;SDS011;52631;42.208;24.656;2023-05-16T00:29:58;64.57;;;31.10;;
65855;SDS011;52631;42.208;24.656;2023-05-16T00:32:24;63.72;;;31.20;;
65855;SDS011;52631;42.208;24.656;2023-05-16T00:34:49;67.72;;;32.25;;
65855;SDS011;52631;42.208;24.656;2023-05-16T00:37:15;68.10;;;33.08;;
65855;SDS011;52631;42.208;24.656;2023-05-16T00:39:40;64.28;;;32.75;;
65855;SDS011;52631;42.208;24.656;2023-05-16T00:42:06;66.97;;;32.33;;
65855;SDS011;52631;42.208;24.656;2023-05-16T00:44:31;65.05;;;32.33;;
65855;SDS011;52631;42.208;24.656;2023-05-16T00:46:57;68.95;;;34.10;;
65855;SDS011;52631;42.208;24.656;2023-05-16T00:49:24;63.47;;;32.80;;
65855;SDS011;52631;42.208;24.656;2023-05-16T00:51:50;66.47;;;31.55;;
65855;SDS011;52631;42.208;24.656;2023-05-16T00:54:15;59.92;;;30.92;;
65855;SDS011;52631;42.208;24.656;2023-05-16T00:56:41;55.50;;;29.50;;
65855;SDS011;52631;42.208;24.656;2023-05-16T00:59:06;54.58;;;29.08;;
65855;SDS011;52631;42.208;24.656;2023-05-16T01:01:32;48.90;;;26.92;;
65855;SDS011;52631;42.208;24.656;2023-05-16T01:03:58;48.58;;;26.55;;
65855;SDS011;52631;42.208;24.656;2023-05-16T01:06:25;46.15;;;25.85;;
65855;SDS011;52631;42.208;24.656;2023-05-16T01:08:50;48.97;;;26.10;;
65855;SDS011;52631;42.208;24.656;2023-05-16T01:11:31;45.63;;;24.70;;
65855;SDS011;52631;42.208;24.656;2023-05-16T01:17:06;42.88;;;25.13;;
65855;SDS011;52631;42.208;24.656;2023-05-16T01:19:46;46.63;;;24.90;;
65855;SDS011;52631;42.208;24.656;2023-05-16T01:27:31;41.80;;;25.38;;
65855;SDS011;52631;42.208;24.656;2023-05-16T01:29:58;46.50;;;24.55;;
65855;SDS011;52631;42.208;24.656;2023-05-16T01:32:23;45.22;;;25.48;;
65855;SDS011;52631;42.208;24.656;2023-05-16T01:34:49;42.97;;;24.88;;
65855;SDS011;52631;42.208;24.656;2023-05-16T01:37:18;43.72;;;25.55;;
65855;SDS011;52631;42.208;24.656;2023-05-16T01:42:20;42.45;;;23.63;;
65855;SDS011;52631;42.208;24.656;2023-05-16T01:47:33;46.88;;;24.95;;
65855;SDS011;52631;42.208;24.656;2023-05-16T01:50:08;48.35;;;24.73;;
65855;SDS011;52631;42.208;24.656;2023-05-16T01:52:39;48.28;;;25.52;;
65855;SDS011;52631;42.208;24.656;2023-05-16T01:55:22;55.60;;;26.17;;
65855;SDS011;52631;42.208;24.656;2023-05-16T01:57:52;49.15;;;25.90;;
65855;SDS011;52631;42.208;24.656;2023-05-16T02:00:18;47.17;;;25.15;;
65855;SDS011;52631;42.208;24.656;2023-05-16T02:02:45;57.17;;;25.90;;
65855;SDS011;52631;42.208;24.656;2023-05-16T02:05:10;48.70;;;26.20;;
65855;SDS011;52631;42.208;24.656;2023-05-16T02:07:35;47.92;;;26.50;;
65855;SDS011;52631;42.208;24.656;2023-05-16T02:10:01;50.15;;;27.33;;
65855;SDS011;52631;42.208;24.656;2023-05-16T02:12:26;49.55;;;26.25;;
65855;SDS011;52631;42.208;24.656;2023-05-16T02:14:52;52.53;;;27.52;;
65855;SDS011;52631;42.208;24.656;2023-05-16T02:17:18;54.78;;;27.52;;
65855;SDS011;52631;42.208;24.656;2023-05-16T02:19:43;54.97;;;27.10;;
65855;SDS011;52631;42.208;24.656;2023-05-16T02:22:08;53.53;;;28.75;;
65855;SDS011;52631;42.208;24.656;2023-05-16T02:24:34;53.88;;;28.10;;
65855;SDS011;52631;42.208;24.656;2023-05-16T02:27:00;48.78;;;27.35;;
65855;SDS011;52631;42.208;24.656;2023-05-16T02:29:25;56.63;;;28.10;;
65855;SDS011;52631;42.208;24.656;2023-05-16T02:31:51;52.85;;;27.42;;
65855;SDS011;52631;42.208;24.656;2023-05-16T02:34:16;53.58;;;27.50;;
65855;SDS011;52631;42.208;24.656;2023-05-16T02:36:42;53.78;;;27.00;;
65855;SDS011;52631;42.208;24.656;2023-05-16T02:39:07;54.15;;;27.02;;
65855;SDS011;52631;42.208;24.656;2023-05-16T02:41:34;52.95;;;27.58;;
65855;SDS011;52631;42.208;24.656;2023-05-16T02:43:59;56.08;;;28.20;;
65855;SDS011;52631;42.208;24.656;2023-05-16T02:46:26;56.65;;;29.92;;
65855;SDS011;52631;42.208;24.656;2023-05-16T02:48:52;52.63;;;28.65;;
65855;SDS011;52631;42.208;24.656;2023-05-16T02:51:22;58.65;;;27.83;;
65855;SDS011;52631;42.208;24.656;2023-05-16T02:53:48;58.72;;;28.75;;
65855;SDS011;52631;42.208;24.656;2023-05-16T02:56:14;52.95;;;29.25;;
65855;SDS011;52631;42.208;24.656;2023-05-16T02:58:40;61.85;;;30.75;;
65855;SDS011;52631;42.208;24.656;2023-05-16T03:01:06;59.33;;;29.25;;
65855;SDS011;52631;42.208;24.656;2023-05-16T03:03:31;58.42;;;30.00;;
65855;SDS011;52631;42.208;24.656;2023-05-16T03:05:59;59.47;;;30.80;;
65855;SDS011;52631;42.208;24.656;2023-05-16T03:08:24;60.30;;;30.95;;
65855;SDS011;52631;42.208;24.656;2023-05-16T03:10:50;55.95;;;29.90;;
65855;SDS011;52631;42.208;24.656;2023-05-16T03:13:15;53.30;;;29.00;;
65855;SDS011;52631;42.208;24.656;2023-05-16T03:15:41;60.67;;;30.27;;
65855;SDS011;52631;42.208;24.656;2023-05-16T03:18:07;61.17;;;30.35;;
65855;SDS011;52631;42.208;24.656;2023-05-16T03:20:32;60.67;;;31.40;;
65855;SDS011;52631;42.208;24.656;2023-05-16T03:22:58;59.88;;;30.65;;
65855;SDS011;52631;42.208;24.656;2023-05-16T03:25:23;57.58;;;30.83;;
65855;SDS011;52631;42.208;24.656;2023-05-16T03:27:49;54.70;;;29.55;;
65855;SDS011;52631;42.208;24.656;2023-05-16T03:30:14;57.90;;;30.92;;
65855;SDS011;52631;42.208;24.656;2023-05-16T03:32:40;55.15;;;30.08;;
65855;SDS011;52631;42.208;24.656;2023-05-16T03:35:05;54.58;;;30.42;;
65855;SDS011;52631;42.208;24.656;2023-05-16T03:37:31;55.15;;;29.98;;
65855;SDS011;52631;42.208;24.656;2023-05-16T03:39:57;55.08;;;28.58;;
65855;SDS011;52631;42.208;24.656;2023-05-16T03:42:22;48.50;;;26.27;;
65855;SDS011;52631;42.208;24.656;2023-05-16T03:44:48;54.70;;;28.25;;
65855;SDS011;52631;42.208;24.656;2023-05-16T03:47:13;57.15;;;27.42;;
65855;SDS011;52631;42.208;24.656;2023-05-16T03:49:39;52.85;;;26.48;;
65855;SDS011;52631;42.208;24.656;2023-05-16T03:52:05;51.03;;;26.90;;
65855;SDS011;52631;42.208;24.656;2023-05-16T03:54:30;54.63;;;26.58;;
65855;SDS011;52631;42.208;24.656;2023-05-16T03:56:56;53.00;;;27.88;;
65855;SDS011;52631;42.208;24.656;2023-05-16T03:59:21;52.00;;;26.58;;
65855;SDS011;52631;42.208;24.656;2023-05-16T04:01:47;53.95;;;29.08;;
65855;SDS011;52631;42.208;24.656;2023-05-16T04:04:14;55.58;;;27.48;;
65855;SDS011;52631;42.208;24.656;2023-05-16T04:06:39;52.53;;;28.27;;
65855;SDS011;52631;42.208;24.656;2023-05-16T04:09:05;50.97;;;29.15;;
65855;SDS011;52631;42.208;24.656;2023-05-16T04:11:33;52.38;;;27.48;;
65855;SDS011;52631;42.208;24.656;2023-05-16T04:13:59;59.47;;;32.80;;
65855;SDS011;52631;42.208;24.656;2023-05-16T04:16:25;56.70;;;32.25;;
65855;SDS011;52631;42.208;24.656;2023-05-16T04:18:51;58.58;;;31.80;;
65855;SDS011;52631;42.208;24.656;2023-05-16T04:21:17;51.28;;;29.10;;
65855;SDS011;52631;42.208;24.656;2023-05-16T04:23:42;61.83;;;30.08;;
65855;SDS011;52631;42.208;24.656;2023-05-16T04:26:08;57.80;;;30.02;;
65855;SDS011;52631;42.208;24.656;2023-05-16T04:28:33;53.17;;;28.70;;
65855;SDS011;52631;42.208;24.656;2023-05-16T04:30:59;55.10;;;29.15;;
65855;SDS011;52631;42.208;24.656;2023-05-16T04:33:25;54.42;;;28.13;;
65855;SDS011;52631;42.208;24.656;2023-05-16T04:35:51;55.85;;;29.52;;
65855;SDS011;52631;42.208;24.656;2023-05-16T04:38:17;50.25;;;28.63;;
65855;SDS011;52631;42.208;24.656;2023-05-16T04:40:42;54.13;;;28.17;;
65855;SDS011;52631;42.208;24.656;2023-05-16T04:43:08;48.65;;;26.88;;
65855;SDS011;52631;42.208;24.656;2023-05-16T04:45:34;49.85;;;30.10;;
65855;SDS011;52631;42.208;24.656;2023-05-16T04:48:00;47.47;;;27.52;;
65855;SDS011;52631;42.208;24.656;2023-05-16T04:50:25;48.60;;;28.33;;
65855;SDS011;52631;42.208;24.656;2023-05-16T04:52:51;46.75;;;26.35;;
65855;SDS011;52631;42.208;24.656;2023-05-16T04:55:16;47.30;;;26.88;;
65855;SDS011;52631;42.208;24.656;2023-05-16T04:57:42;43.22;;;26.73;;
65855;SDS011;52631;42.208;24.656;2023-05-16T05:00:07;43.85;;;25.08;;
65855;SDS011;52631;42.208;24.656;2023-05-16T05:02:36;45.28;;;26.05;;
65855;SDS011;52631;42.208;24.656;2023-05-16T05:05:02;39.83;;;24.08;;
65855;SDS011;52631;42.208;24.656;2023-05-16T05:07:28;41.42;;;26.05;;
65855;SDS011;52631;42.208;24.656;2023-05-16T05:09:54;45.70;;;25.42;;
65855;SDS011;52631;42.208;24.656;2023-05-16T05:12:22;42.25;;;25.05;;
65855;SDS011;52631;42.208;24.656;2023-05-16T05:14:48;43.70;;;24.42;;
65855;SDS011;52631;42.208;24.656;2023-05-16T05:17:13;42.03;;;25.48;;
65855;SDS011;52631;42.208;24.656;2023-05-16T05:19:39;42.08;;;25.02;;
65855;SDS011;52631;42.208;24.656;2023-05-16T05:22:04;39.95;;;23.95;;
65855;SDS011;52631;42.208;24.656;2023-05-16T05:24:30;44.00;;;26.95;;
65855;SDS011;52631;42.208;24.656;2023-05-16T05:26:55;46.55;;;25.55;;
65855;SDS011;52631;42.208;24.656;2023-05-16T05:29:21;48.75;;;26.17;;
65855;SDS011;52631;42.208;24.656;2023-05-16T05:31:46;45.10;;;25.92;;
65855;SDS011;52631;42.208;24.656;2023-05-16T05:34:12;40.08;;;26.13;;
65855;SDS011;52631;42.208;24.656;2023-05-16T05:36:37;44.20;;;24.67;;
65855;SDS011;52631;42.208;24.656;2023-05-16T05:39:03;43.85;;;25.30;;
65855;SDS011;52631;42.208;24.656;2023-05-16T05:41:28;41.92;;;26.85;;
65855;SDS011;52631;42.208;24.656;2023-05-16T05:43:53;43.35;;;26.13;;
65855;SDS011;52631;42.208;24.656;2023-05-16T05:46:19;38.08;;;25.35;;
65855;SDS011;52631;42.208;24.656;2023-05-16T05:48:44;35.55;;;23.25;;
65855;SDS011;52631;42.208;24.656;2023-05-16T05:51:10;41.85;;;24.65;;
65855;SDS011;52631;42.208;24.656;2023-05-16T05:53:38;38.00;;;24.45;;
65855;SDS011;52631;42.208;24.656;2023-05-16T05:56:04;34.00;;;23.45;;
65855;SDS011;52631;42.208;24.656;2023-05-16T05:58:30;34.50;;;23.05;;
65855;SDS011;52631;42.208;24.656;2023-05-16T06:00:55;40.92;;;26.15;;
65855;SDS011;52631;42.208;24.656;2023-05-16T06:03:21;37.80;;;22.65;;
65855;SDS011;52631;42.208;24.656;2023-05-16T06:05:46;39.13;;;25.95;;
65855;SDS011;52631;42.208;24.656;2023-05-16T06:08:12;35.00;;;22.70;;
65855;SDS011;52631;42.208;24.656;2023-05-16T06:10:37;32.78;;;22.30;;
65855;SDS011;52631;42.208;24.656;2023-05-16T06:13:03;36.33;;;25.15;;
65855;SDS011;52631;42.208;24.656;2023-05-16T06:15:28;26.33;;;18.58;;
65855;SDS011;52631;42.208;24.656;2023-05-16T06:17:54;29.08;;;19.63;;
65855;SDS011;52631;42.208;24.656;2023-05-16T06:20:19;31.05;;;20.70;;
65855;SDS011;52631;42.208;24.656;2023-05-16T06:22:44;30.50;;;20.23;;
65855;SDS011;52631;42.208;24.656;2023-05-16T06:25:10;32.70;;;20.65;;
65855;SDS011;52631;42.208;24.656;2023-05-16T06:27:36;40.30;;;23.15;;
65855;SDS011;52631;42.208;24.656;2023-05-16T06:30:01;38.03;;;22.27;;
65855;SDS011;52631;42.208;24.656;2023-05-16T06:32:27;37.10;;;23.58;;
65855;SDS011;52631;42.208;24.656;2023-05-16T06:34:53;43.50;;;24.42;;
65855;SDS011;52631;42.208;24.656;2023-05-16T06:37:18;40.63;;;23.27;;
65855;SDS011;52631;42.208;24.656;2023-05-16T06:39:44;39.33;;;24.85;;
65855;SDS011;52631;42.208;24.656;2023-05-16T06:42:10;39.05;;;24.45;;
65855;SDS011;52631;42.208;24.656;2023-05-16T06:44:35;42.05;;;25.23;;
65855;SDS011;52631;42.208;24.656;2023-05-16T06:47:00;45.83;;;27.85;;
65855;SDS011;52631;42.208;24.656;2023-05-16T06:49:26;45.28;;;27.15;;
65855;SDS011;52631;42.208;24.656;2023-05-16T06:51:51;45.28;;;26.23;;
65855;SDS011;52631;42.208;24.656;2023-05-16T06:54:17;44.00;;;27.38;;
65855;SDS011;52631;42.208;24.656;2023-05-16T06:56:43;43.05;;;27.52;;
65855;SDS011;52631;42.208;24.656;2023-05-16T06:59:09;40.78;;;25.23;;
65855;SDS011;52631;42.208;24.656;2023-05-16T07:01:34;38.00;;;23.98;;
65855;SDS011;52631;42.208;24.656;2023-05-16T07:03:59;40.55;;;24.65;;
65855;SDS011;52631;42.208;24.656;2023-05-16T07:06:25;39.60;;;24.85;;
65855;SDS011;52631;42.208;24.656;2023-05-16T07:08:51;34.92;;;23.20;;
65855;SDS011;52631;42.208;24.656;2023-05-16T07:11:16;33.25;;;21.52;;
65855;SDS011;52631;42.208;24.656;2023-05-16T07:13:42;31.95;;;20.98;;
65855;SDS011;52631;42.208;24.656;2023-05-16T07:16:07;35.20;;;22.70;;
65855;SDS011;52631;42.208;24.656;2023-05-16T07:18:33;35.08;;;21.25;;
65855;SDS011;52631;42.208;24.656;2023-05-16T07:20:58;25.38;;;18.58;;
65855;SDS011;52631;42.208;24.656;2023-05-16T07:23:24;23.80;;;15.60;;
65855;SDS011;52631;42.208;24.656;2023-05-16T07:25:50;21.33;;;13.65;;
65855;SDS011;52631;42.208;24.656;2023-05-16T07:28:16;18.30;;;13.73;;
65855;SDS011;52631;42.208;24.656;2023-05-16T07:30:41;22.63;;;15.90;;
65855;SDS011;52631;42.208;24.656;2023-05-16T07:33:06;26.30;;;15.63;;
65855;SDS011;52631;42.208;24.656;2023-05-16T07:35:32;23.63;;;16.75;;
65855;SDS011;52631;42.208;24.656;2023-05-16T07:37:57;22.52;;;15.65;;
65855;SDS011;52631;42.208;24.656;2023-05-16T07:40:23;27.58;;;16.98;;
65855;SDS011;52631;42.208;24.656;2023-05-16T07:42:52;21.52;;;15.60;;
65855;SDS011;52631;42.208;24.656;2023-05-16T07:45:17;26.65;;;17.30;;
65855;SDS011;52631;42.208;24.656;2023-05-16T07:47:43;24.67;;;15.52;;
65855;SDS011;52631;42.208;24.656;2023-05-16T07:50:09;26.05;;;17.35;;
65855;SDS011;52631;42.208;24.656;2023-05-16T07:52:35;26.70;;;16.40;;
65855;SDS011;52631;42.208;24.656;2023-05-16T07:55:01;26.40;;;15.48;;
65855;SDS011;52631;42.208;24.656;2023-05-16T07:57:26;25.67;;;16.15;;
65855;SDS011;52631;42.208;24.656;2023-05-16T07:59:52;22.73;;;15.90;;
65855;SDS011;52631;42.208;24.656;2023-05-16T08:02:18;22.35;;;14.95;;
65855;SDS011;52631;42.208;24.656;2023-05-16T08:04:44;22.63;;;14.25;;
65855;SDS011;52631;42.208;24.656;2023-05-16T08:07:09;23.02;;;15.05;;
65855;SDS011;52631;42.208;24.656;2023-05-16T08:09:35;19.33;;;13.20;;
65855;SDS011;52631;42.208;24.656;2023-05-16T08:12:00;19.63;;;12.80;;
65855;SDS011;52631;42.208;24.656;2023-05-16T08:14:28;18.55;;;13.55;;
65855;SDS011;52631;42.208;24.656;2023-05-16T08:16:56;17.92;;;13.23;;
65855;SDS011;52631;42.208;24.656;2023-05-16T08:19:22;20.10;;;13.82;;
65855;SDS011;52631;42.208;24.656;2023-05-16T08:21:48;19.30;;;13.10;;
65855;SDS011;52631;42.208;24.656;2023-05-16T08:24:13;21.58;;;13.65;;
65855;SDS011;52631;42.208;24.656;2023-05-16T08:26:39;23.80;;;13.90;;
65855;SDS011;52631;42.208;24.656;2023-05-16T08:29:04;18.77;;;13.23;;
65855;SDS011;52631;42.208;24.656;2023-05-16T08:31:30;18.88;;;12.85;;
65855;SDS011;52631;42.208;24.656;2023-05-16T08:33:56;18.58;;;13.07;;
65855;SDS011;52631;42.208;24.656;2023-05-16T08:36:22;20.33;;;12.05;;
65855;SDS011;52631;42.208;24.656;2023-05-16T08:38:50;16.98;;;13.00;;
65855;SDS011;52631;42.208;24.656;2023-05-16T08:41:16;17.75;;;12.35;;
65855;SDS011;52631;42.208;24.656;2023-05-16T08:43:41;17.27;;;11.85;;
65855;SDS011;52631;42.208;24.656;2023-05-16T08:46:07;16.17;;;11.82;;
65855;SDS011;52631;42.208;24.656;2023-05-16T08:48:32;15.40;;;12.02;;
65855;SDS011;52631;42.208;24.656;2023-05-16T08:50:59;15.02;;;11.70;;
65855;SDS011;52631;42.208;24.656;2023-05-16T08:53:26;17.67;;;11.65;;
65855;SDS011;52631;42.208;24.656;2023-05-16T08:55:57;15.20;;;12.27;;
65855;SDS011;52631;42.208;24.656;2023-05-16T08:58:23;17.27;;;12.57;;
65855;SDS011;52631;42.208;24.656;2023-05-16T09:00:49;18.50;;;11.93;;
65855;SDS011;52631;42.208;24.656;2023-05-16T09:03:15;15.55;;;11.70;;
65855;SDS011;52631;42.208;24.656;2023-05-16T09:05:41;16.08;;;11.52;;
65855;SDS011;52631;42.208;24.656;2023-05-16T09:08:06;17.35;;;11.52;;
65855;SDS011;52631;42.208;24.656;2023-05-16T09:10:31;14.07;;;11.18;;
65855;SDS011;52631;42.208;24.656;2023-05-16T09:12:57;15.07;;;10.73;;
65855;SDS011;52631;42.208;24.656;2023-05-16T09:15:22;14.23;;;10.98;;
65855;SDS011;52631;42.208;24.656;2023-05-16T09:17:48;15.93;;;11.80;;
65855;SDS011;52631;42.208;24.656;2023-05-16T09:20:17;14.63;;;11.68;;
65855;SDS011;52631;42.208;24.656;2023-05-16T09:22:53;19.37;;;12.73;;
65855;SDS011;52631;42.208;24.656;2023-05-16T09:25:20;14.45;;;11.05;;
65855;SDS011;52631;42.208;24.656;2023-05-16T09:27:46;15.30;;;12.00;;
65855;SDS011;52631;42.208;24.656;2023-05-16T09:30:15;15.13;;;12.73;;
65855;SDS011;52631;42.208;24.656;2023-05-16T09:32:44;15.25;;;12.63;;
65855;SDS011;52631;42.208;24.656;2023-05-16T09:35:10;15.02;;;12.35;;
65855;SDS011;52631;42.208;24.656;2023-05-16T09:37:44;17.50;;;12.93;;
65855;SDS011;52631;42.208;24.656;2023-05-16T09:40:12;16.42;;;12.80;;
65855;SDS011;52631;42.208;24.656;2023-05-16T09:42:38;16.90;;;13.35;;
65855;SDS011;52631;42.208;24.656;2023-05-16T09:45:04;17.67;;;13.10;;
65855;SDS011;52631;42.208;24.656;2023-05-16T09:47:30;18.83;;;13.60;;
65855;SDS011;52631;42.208;24.656;2023-05-16T09:49:55;18.35;;;13.45;;
65855;SDS011;52631;42.208;24.656;2023-05-16T09:52:21;20.63;;;13.15;;
65855;SDS011;52631;42.208;24.656;2023-05-16T09:54:47;18.60;;;13.27;;
65855;SDS011;52631;42.208;24.656;2023-05-16T09:57:18;18.35;;;13.43;;
65855;SDS011;52631;42.208;24.656;2023-05-16T09:59:44;17.65;;;14.02;;
65855;SDS011;52631;42.208;24.656;2023-05-16T10:02:10;20.08;;;13.38;;
65855;SDS011;52631;42.208;24.656;2023-05-16T10:04:37;19.42;;;14.68;;
65855;SDS011;52631;42.208;24.656;2023-05-16T10:07:02;26.85;;;14.35;;
65855;SDS011;52631;42.208;24.656;2023-05-16T10:09:30;19.52;;;14.20;;
65855;SDS011;52631;42.208;24.656;2023-05-16T10:11:56;19.50;;;14.52;;
65855;SDS011;52631;42.208;24.656;2023-05-16T10:14:22;18.55;;;13.73;;
65855;SDS011;52631;42.208;24.656;2023-05-16T10:16:49;18.25;;;13.55;;
65855;SDS011;52631;42.208;24.656;2023-05-16T10:19:16;18.20;;;14.07;;
65855;SDS011;52631;42.208;24.656;2023-05-16T10:21:42;19.77;;;15.20;;
65855;SDS011;52631;42.208;24.656;2023-05-16T10:24:10;23.08;;;16.00;;
65855;SDS011;52631;42.208;24.656;2023-05-16T10:26:37;21.70;;;14.02;;
65855;SDS011;52631;42.208;24.656;2023-05-16T10:29:02;19.00;;;15.68;;
65855;SDS011;52631;42.208;24.656;2023-05-16T10:31:28;19.73;;;15.55;;
65855;SDS011;52631;42.208;24.656;2023-05-16T10:33:54;22.00;;;14.77;;
65855;SDS011;52631;42.208;24.656;2023-05-16T10:36:21;18.73;;;15.18;;
65855;SDS011;52631;42.208;24.656;2023-05-16T10:38:47;17.60;;;13.98;;
65855;SDS011;52631;42.208;24.656;2023-05-16T10:41:14;17.42;;;13.25;;
65855;SDS011;52631;42.208;24.656;2023-05-16T10:43:43;15.52;;;12.48;;
65855;SDS011;52631;42.208;24.656;2023-05-16T10:46:10;16.33;;;12.95;;
65855;SDS011;52631;42.208;24.656;2023-05-16T10:48:40;17.23;;;13.43;;
65855;SDS011;52631;42.208;24.656;2023-05-16T10:53:47;19.13;;;13.15;;
65855;SDS011;52631;42.208;24.656;2023-05-16T10:56:15;20.30;;;13.18;;
65855;SDS011;52631;42.208;24.656;2023-05-16T10:58:47;17.48;;;13.10;;
65855;SDS011;52631;42.208;24.656;2023-05-16T11:04:07;18.15;;;13.90;;
65855;SDS011;52631;42.208;24.656;2023-05-16T11:06:42;16.48;;;12.90;;
65855;SDS011;52631;42.208;24.656;2023-05-16T11:14:06;15.93;;;13.40;;
65855;SDS011;52631;42.208;24.656;2023-05-16T11:16:32;16.15;;;12.65;;
65855;SDS011;52631;42.208;24.656;2023-05-16T11:19:05;16.17;;;13.18;;
65855;SDS011;52631;42.208;24.656;2023-05-16T11:24:47;17.38;;;13.07;;
65855;SDS011;52631;42.208;24.656;2023-05-16T11:27:17;19.85;;;14.27;;
65855;SDS011;52631;42.208;24.656;2023-05-16T11:29:45;17.30;;;13.68;;
65855;SDS011;52631;42.208;24.656;2023-05-16T11:32:10;17.45;;;13.05;;
65855;SDS011;52631;42.208;24.656;2023-05-16T11:34:36;16.33;;;13.63;;
65855;SDS011;52631;42.208;24.656;2023-05-16T11:37:03;17.50;;;14.07;;
65855;SDS011;52631;42.208;24.656;2023-05-16T11:39:29;16.73;;;13.63;;
65855;SDS011;52631;42.208;24.656;2023-05-16T11:41:55;16.08;;;13.02;;
65855;SDS011;52631;42.208;24.656;2023-05-16T11:44:21;23.23;;;13.57;;
65855;SDS011;52631;42.208;24.656;2023-05-16T11:46:47;20.45;;;14.00;;
65855;SDS011;52631;42.208;24.656;2023-05-16T11:49:13;16.92;;;12.80;;
65855;SDS011;52631;42.208;24.656;2023-05-16T11:51:39;17.50;;;12.68;;
65855;SDS011;52631;42.208;24.656;2023-05-16T11:54:05;18.17;;;13.15;;
65855;SDS011;52631;42.208;24.656;2023-05-16T11:56:31;16.13;;;13.30;;
65855;SDS011;52631;42.208;24.656;2023-05-16T11:58:59;20.30;;;13.13;;
65855;SDS011;52631;42.208;24.656;2023-05-16T12:01:30;17.92;;;13.65;;
65855;SDS011;52631;42.208;24.656;2023-05-16T12:04:11;16.15;;;13.68;;
65855;SDS011;52631;42.208;24.656;2023-05-16T12:06:38;16.83;;;13.95;;
65855;SDS011;52631;42.208;24.656;2023-05-16T12:09:04;14.52;;;12.88;;
65855;SDS011;52631;42.208;24.656;2023-05-16T12:11:35;16.02;;;14.05;;
65855;SDS011;52631;42.208;24.656;2023-05-16T12:14:02;21.85;;;13.88;;
65855;SDS011;52631;42.208;24.656;2023-05-16T12:16:28;17.63;;;13.38;;
65855;SDS011;52631;42.208;24.656;2023-05-16T12:18:55;15.02;;;12.55;;
65855;SDS011;52631;42.208;24.656;2023-05-16T12:21:21;18.30;;;14.10;;
65855;SDS011;52631;42.208;24.656;2023-05-16T12:23:46;19.55;;;13.18;;
65855;SDS011;52631;42.208;24.656;2023-05-16T12:26:12;18.58;;;14.10;;
65855;SDS011;52631;42.208;24.656;2023-05-16T12:28:38;18.40;;;14.38;;
65855;SDS011;52631;42.208;24.656;2023-05-16T12:31:10;19.27;;;14.65;;
65855;SDS011;52631;42.208;24.656;2023-05-16T12:33:36;15.68;;;13.23;;
65855;SDS011;52631;42.208;24.656;2023-05-16T12:36:02;16.70;;;13.45;;
65855;SDS011;52631;42.208;24.656;2023-05-16T12:38:28;18.05;;;13.73;;
65855;SDS011;52631;42.208;24.656;2023-05-16T12:40:56;17.02;;;12.85;;
65855;SDS011;52631;42.208;24.656;2023-05-16T12:43:22;14.75;;;13.13;;
65855;SDS011;52631;42.208;24.656;2023-05-16T12:45:48;20.75;;;13.55;;
65855;SDS011;52631;42.208;24.656;2023-05-16T12:48:17;17.33;;;13.32;;
65855;SDS011;52631;42.208;24.656;2023-05-16T12:50:43;19.23;;;14.40;;
65855;SDS011;52631;42.208;24.656;2023-05-16T12:53:12;16.80;;;13.73;;
65855;SDS011;52631;42.208;24.656;2023-05-16T12:55:39;17.05;;;13.93;;
65855;SDS011;52631;42.208;24.656;2023-05-16T12:58:05;21.40;;;14.38;;
65855;SDS011;52631;42.208;24.656;2023-05-16T13:00:31;17.95;;;14.02;;
65855;SDS011;52631;42.208;24.656;2023-05-16T13:02:56;19.33;;;15.30;;
65855;SDS011;52631;42.208;24.656;2023-05-16T13:05:21;17.42;;;14.13;;
65855;SDS011;52631;42.208;24.656;2023-05-16T13:07:47;17.65;;;14.82;;
65855;SDS011;52631;42.208;24.656;2023-05-16T13:10:15;18.77;;;14.40;;
65855;SDS011;52631;42.208;24.656;2023-05-16T13:12:42;19.92;;;14.32;;
65855;SDS011;52631;42.208;24.656;2023-05-16T13:15:08;19.23;;;14.50;;
65855;SDS011;52631;42.208;24.656;2023-05-16T13:17:34;22.25;;;14.05;;
65855;SDS011;52631;42.208;24.656;2023-05-16T13:20:00;18.55;;;14.77;;
65855;SDS011;52631;42.208;24.656;2023-05-16T13:22:27;18.40;;;14.60;;
65855;SDS011;52631;42.208;24.656;2023-05-16T13:24:52;16.75;;;13.27;;
65855;SDS011;52631;42.208;24.656;2023-05-16T13:27:18;24.77;;;14.48;;
65855;SDS011;52631;42.208;24.656;2023-05-16T13:29:44;17.40;;;14.32;;
65855;SDS011;52631;42.208;24.656;2023-05-16T13:32:09;16.30;;;13.30;;
65855;SDS011;52631;42.208;24.656;2023-05-16T13:34:35;16.73;;;13.60;;
65855;SDS011;52631;42.208;24.656;2023-05-16T13:37:00;18.20;;;13.23;;
65855;SDS011;52631;42.208;24.656;2023-05-16T13:39:26;17.45;;;13.30;;
65855;SDS011;52631;42.208;24.656;2023-05-16T13:41:51;16.17;;;13.57;;
65855;SDS011;52631;42.208;24.656;2023-05-16T13:44:17;19.85;;;13.73;;
65855;SDS011;52631;42.208;24.656;2023-05-16T13:46:43;15.00;;;13.38;;
65855;SDS011;52631;42.208;24.656;2023-05-16T13:49:08;17.85;;;13.48;;
65855;SDS011;52631;42.208;24.656;2023-05-16T13:51:34;18.50;;;13.55;;
65855;SDS011;52631;42.208;24.656;2023-05-16T13:54:00;17.00;;;14.02;;
65855;SDS011;52631;42.208;24.656;2023-05-16T13:56:25;17.83;;;13.35;;
65855;SDS011;52631;42.208;24.656;2023-05-16T13:58:50;15.98;;;13.00;;
65855;SDS011;52631;42.208;24.656;2023-05-16T14:01:16;16.25;;;13.52;;
65855;SDS011;52631;42.208;24.656;2023-05-16T14:03:41;17.30;;;13.80;;
65855;SDS011;52631;42.208;24.656;2023-05-16T14:06:07;16.92;;;13.63;;
65855;SDS011;52631;42.208;24.656;2023-05-16T14:08:34;18.48;;;15.00;;
65855;SDS011;52631;42.208;24.656;2023-05-16T14:10:59;17.30;;;14.52;;
65855;SDS011;52631;42.208;24.656;2023-05-16T14:13:25;18.80;;;14.45;;
65855;SDS011;52631;42.208;24.656;2023-05-16T14:15:50;21.45;;;15.93;;
65855;SDS011;52631;42.208;24.656;2023-05-16T14:18:16;18.20;;;14.98;;
65855;SDS011;52631;42.208;24.656;2023-05-16T14:20:41;20.48;;;15.07;;
65855;SDS011;52631;42.208;24.656;2023-05-16T14:23:07;21.38;;;15.55;;
65855;SDS011;52631;42.208;24.656;2023-05-16T14:25:32;21.63;;;16.50;;
65855;SDS011;52631;42.208;24.656;2023-05-16T14:27:59;20.85;;;16.42;;
65855;SDS011;52631;42.208;24.656;2023-05-16T14:30:24;23.23;;;16.58;;